Time;durP1;ratioP1;P1;durP2;ratioP2;P2;SDS_P1;SDS_P2;PMS_P1;PMS_P2;Temp;Humidity;BMP_temperature;BMP_pressure;BME280_temperature;BME280_humidity;BME280_pressure;Samples;Min_cycle;Max_cycle;Signal;HPM_P1;HPM_P2
2023/07/19 00:02:01;;;;;;;11.13;5.50;;;;;;;;;;5035784;28;20481;-75
2023/07/19 00:04:28;;;;;;;6.97;4.53;;;;;;;;;;5035467;28;20453;-75
2023/07/19 00:06:57;;;;;;;7.47;5.20;;;;;;;;;;5035392;28;20827;-74
2023/07/19 00:09:24;;;;;;;8.47;5.60;;;;;;;;;;5035605;28;20584;-74
2023/07/19 00:11:51;;;;;;;6.53;4.50;;;;;;;;;;5035362;28;20466;-75
2023/07/19 00:14:18;;;;;;;12.13;5.70;;;;;;;;;;5035068;28;20939;-74
2023/07/19 00:16:46;;;;;;;15.00;5.40;;;;;;;;;;5035052;28;20446;-74
2023/07/19 00:19:14;;;;;;;10.90;5.90;;;;;;;;;;5035256;28;20467;-74
2023/07/19 00:21:41;;;;;;;8.13;5.40;;;;;;;;;;5035263;28;20465;-74
2023/07/19 00:24:08;;;;;;;8.03;4.90;;;;;;;;;;5035163;28;20466;-75
2023/07/19 00:26:35;;;;;;;11.83;5.33;;;;;;;;;;5035329;28;20449;-74
2023/07/19 00:29:02;;;;;;;9.83;6.17;;;;;;;;;;5034904;28;20500;-74
2023/07/19 00:31:31;;;;;;;6.37;5.00;;;;;;;;;;5034857;28;20599;-74
2023/07/19 00:33:58;;;;;;;22.87;5.70;;;;;;;;;;5035317;28;20449;-74
2023/07/19 00:36:26;;;;;;;9.67;6.57;;;;;;;;;;5035014;28;20465;-74
2023/07/19 00:38:53;;;;;;;9.40;4.97;;;;;;;;;;5034980;28;20457;-74
2023/07/19 00:41:20;;;;;;;10.80;5.80;;;;;;;;;;5034983;28;20845;-75
2023/07/19 00:43:48;;;;;;;9.17;5.77;;;;;;;;;;5035198;28;20486;-75
2023/07/19 00:46:15;;;;;;;6.47;4.63;;;;;;;;;;5034793;28;21016;-74
2023/07/19 00:48:42;;;;;;;9.13;5.23;;;;;;;;;;5034351;28;21001;-74
2023/07/19 00:51:10;;;;;;;8.33;6.00;;;;;;;;;;5034787;28;20488;-75
2023/07/19 00:53:40;;;;;;;12.50;5.70;;;;;;;;;;5034627;28;20462;-75
2023/07/19 00:56:08;;;;;;;12.20;4.90;;;;;;;;;;5034669;28;20460;-74
2023/07/19 00:58:36;;;;;;;14.67;5.40;;;;;;;;;;5034566;28;20516;-74
2023/07/19 01:01:05;;;;;;;7.80;5.13;;;;;;;;;;5034639;28;20974;-74
2023/07/19 01:03:32;;;;;;;10.33;5.60;;;;;;;;;;5033986;28;20465;-75
2023/07/19 01:06:01;;;;;;;8.70;5.97;;;;;;;;;;5034577;28;20449;-75
2023/07/19 01:08:28;;;;;;;9.10;6.57;;;;;;;;;;5034388;28;20486;-75
2023/07/19 01:10:57;;;;;;;13.00;5.40;;;;;;;;;;5034245;28;20481;-75
2023/07/19 01:13:24;;;;;;;8.37;5.30;;;;;;;;;;5033971;28;20457;-74
2023/07/19 01:15:52;;;;;;;10.33;6.07;;;;;;;;;;5034265;28;20521;-75
2023/07/19 01:18:19;;;;;;;8.50;5.40;;;;;;;;;;5034379;28;20450;-74
2023/07/19 01:20:46;;;;;;;8.00;5.37;;;;;;;;;;5033866;28;20473;-74
2023/07/19 01:23:15;;;;;;;18.87;6.27;;;;;;;;;;5033678;28;20464;-74
2023/07/19 01:25:42;;;;;;;9.43;5.80;;;;;;;;;;5033795;28;20835;-74
2023/07/19 01:28:10;;;;;;;13.13;6.10;;;;;;;;;;5033614;28;20462;-74
2023/07/19 01:30:37;;;;;;;6.60;5.70;;;;;;;;;;5033819;28;20477;-74
2023/07/19 01:33:04;;;;;;;8.93;5.77;;;;;;;;;;5033859;28;20821;-74
2023/07/19 01:35:31;;;;;;;11.93;5.00;;;;;;;;;;5033638;28;20456;-74
2023/07/19 01:37:58;;;;;;;10.63;5.33;;;;;;;;;;5033494;28;20476;-74
2023/07/19 01:40:27;;;;;;;10.73;5.17;;;;;;;;;;5033500;28;20453;-74
2023/07/19 01:42:54;;;;;;;11.57;5.50;;;;;;;;;;5033556;28;20472;-74
2023/07/19 01:45:21;;;;;;;9.77;5.33;;;;;;;;;;5033735;28;20830;-74
2023/07/19 01:47:48;;;;;;;13.70;6.80;;;;;;;;;;5033334;28;20469;-74
2023/07/19 01:50:15;;;;;;;11.90;6.13;;;;;;;;;;5033365;28;20518;-75
2023/07/19 01:52:43;;;;;;;11.43;5.57;;;;;;;;;;5033312;28;20966;-75
2023/07/19 01:55:10;;;;;;;8.60;6.50;;;;;;;;;;5033469;28;20457;-74
2023/07/19 01:57:38;;;;;;;16.03;5.33;;;;;;;;;;5033434;28;20965;-75
2023/07/19 02:00:06;;;;;;;8.33;5.30;;;;;;;;;;5033236;28;20446;-74
2023/07/19 02:02:33;;;;;;;8.70;5.40;;;;;;;;;;5033041;28;20473;-75
2023/07/19 02:05:00;;;;;;;11.87;5.87;;;;;;;;;;5033388;28;20935;-74
2023/07/19 02:07:27;;;;;;;11.57;5.53;;;;;;;;;;5033112;28;20449;-74
2023/07/19 02:09:54;;;;;;;10.97;5.33;;;;;;;;;;5033146;28;20486;-74
2023/07/19 02:12:21;;;;;;;13.20;7.07;;;;;;;;;;5033042;28;20469;-74
2023/07/19 02:14:50;;;;;;;9.40;5.43;;;;;;;;;;5032441;28;20449;-75
2023/07/19 02:17:17;;;;;;;7.20;5.10;;;;;;;;;;5033144;28;20450;-74
2023/07/19 02:19:44;;;;;;;12.60;5.97;;;;;;;;;;5032991;28;20462;-74
2023/07/19 02:22:11;;;;;;;8.47;5.53;;;;;;;;;;5033065;28;20505;-74
2023/07/19 02:24:38;;;;;;;8.77;5.90;;;;;;;;;;5033045;28;20549;-74
2023/07/19 02:27:05;;;;;;;8.63;5.10;;;;;;;;;;5032989;28;20449;-74
2023/07/19 02:29:32;;;;;;;8.93;6.27;;;;;;;;;;5032816;28;20497;-75
2023/07/19 02:32:01;;;;;;;15.40;6.27;;;;;;;;;;5032906;28;20830;-75
2023/07/19 02:34:28;;;;;;;8.20;5.37;;;;;;;;;;5032920;28;20507;-74
2023/07/19 02:36:56;;;;;;;11.43;6.13;;;;;;;;;;5032792;28;20458;-74
2023/07/19 02:39:26;;;;;;;7.57;4.83;;;;;;;;;;5032797;28;20500;-74
2023/07/19 02:41:53;;;;;;;10.50;5.43;;;;;;;;;;5032902;28;20475;-74
2023/07/19 02:44:20;;;;;;;10.50;6.10;;;;;;;;;;5032761;28;20458;-74
2023/07/19 02:46:47;;;;;;;11.00;5.70;;;;;;;;;;5032694;28;20923;-74
2023/07/19 02:49:16;;;;;;;13.70;5.90;;;;;;;;;;5032751;28;20500;-74
2023/07/19 02:51:43;;;;;;;9.40;5.73;;;;;;;;;;5032817;28;20497;-74
2023/07/19 02:54:10;;;;;;;8.63;5.40;;;;;;;;;;5032806;28;20800;-74
2023/07/19 02:56:37;;;;;;;7.30;5.40;;;;;;;;;;5032763;28;20447;-74
2023/07/19 02:59:05;;;;;;;18.30;7.60;;;;;;;;;;5032466;28;20500;-74
2023/07/19 03:01:32;;;;;;;9.60;6.00;;;;;;;;;;5032451;28;20478;-74
2023/07/19 03:03:59;;;;;;;7.27;5.37;;;;;;;;;;5032760;28;20457;-74
2023/07/19 03:06:28;;;;;;;10.03;5.73;;;;;;;;;;5032518;28;20460;-74
2023/07/19 03:08:55;;;;;;;10.60;5.67;;;;;;;;;;5032486;28;20481;-74
2023/07/19 03:11:23;;;;;;;15.47;6.20;;;;;;;;;;5032474;28;20469;-74
2023/07/19 03:13:50;;;;;;;7.60;5.50;;;;;;;;;;5032549;28;20454;-74
2023/07/19 03:16:17;;;;;;;11.50;6.20;;;;;;;;;;5032684;28;20461;-74
2023/07/19 03:18:44;;;;;;;7.00;5.33;;;;;;;;;;5032329;28;20828;-74
2023/07/19 03:21:11;;;;;;;14.60;7.57;;;;;;;;;;5032444;28;20477;-74
2023/07/19 03:23:40;;;;;;;16.70;6.30;;;;;;;;;;5032412;28;20465;-74
2023/07/19 03:26:07;;;;;;;12.90;6.33;;;;;;;;;;5034071;28;20461;-74
2023/07/19 03:28:34;;;;;;;10.10;7.07;;;;;;;;;;5035644;28;20454;-74
2023/07/19 03:31:01;;;;;;;10.40;5.20;;;;;;;;;;5036087;28;20469;-74
2023/07/19 03:33:28;;;;;;;6.73;4.40;;;;;;;;;;5035681;28;20453;-74
2023/07/19 03:35:56;;;;;;;9.43;5.87;;;;;;;;;;5035225;28;20764;-74
2023/07/19 03:38:23;;;;;;;8.37;5.50;;;;;;;;;;5034841;28;20457;-74
2023/07/19 03:40:51;;;;;;;15.00;5.97;;;;;;;;;;5034869;28;20990;-74
2023/07/19 03:43:18;;;;;;;11.33;5.90;;;;;;;;;;5034915;28;20506;-74
2023/07/19 03:45:45;;;;;;;8.00;5.50;;;;;;;;;;5034806;28;20456;-74
2023/07/19 03:48:12;;;;;;;9.90;4.90;;;;;;;;;;5034821;28;20457;-74
2023/07/19 03:50:39;;;;;;;12.17;5.27;;;;;;;;;;5034186;28;20493;-74
2023/07/19 03:53:07;;;;;;;10.20;5.90;;;;;;;;;;5034906;28;20891;-74
2023/07/19 03:55:34;;;;;;;9.50;6.00;;;;;;;;;;5034413;28;20446;-74
2023/07/19 03:58:02;;;;;;;10.47;6.90;;;;;;;;;;5034622;28;20507;-74
2023/07/19 04:00:29;;;;;;;9.03;5.47;;;;;;;;;;5034584;28;20784;-74
2023/07/19 04:02:58;;;;;;;9.10;4.93;;;;;;;;;;5034829;28;20460;-74
2023/07/19 04:05:25;;;;;;;8.23;5.77;;;;;;;;;;5034441;28;20516;-74
2023/07/19 04:07:52;;;;;;;9.80;5.60;;;;;;;;;;5034273;28;20465;-75
2023/07/19 04:10:19;;;;;;;10.30;4.60;;;;;;;;;;5034370;28;21049;-75
2023/07/19 04:12:46;;;;;;;11.50;5.40;;;;;;;;;;5034150;28;20899;-75
2023/07/19 04:15:15;;;;;;;11.27;6.20;;;;;;;;;;5034553;28;20453;-74
2023/07/19 04:17:42;;;;;;;8.33;4.97;;;;;;;;;;5034161;28;20453;-74
2023/07/19 04:20:09;;;;;;;7.80;5.27;;;;;;;;;;5034284;28;20486;-74
2023/07/19 04:22:36;;;;;;;9.70;5.97;;;;;;;;;;5033945;28;20476;-75
2023/07/19 04:25:04;;;;;;;12.13;5.27;;;;;;;;;;5034116;28;20910;-74
2023/07/19 04:27:32;;;;;;;13.43;4.80;;;;;;;;;;5034224;28;20457;-75
2023/07/19 04:29:59;;;;;;;10.13;4.30;;;;;;;;;;5033930;28;20896;-75
2023/07/19 04:32:28;;;;;;;10.57;5.00;;;;;;;;;;5030227;28;20475;-74
2023/07/19 04:34:55;;;;;;;7.80;4.47;;;;;;;;;;5014271;28;20466;-75
2023/07/19 04:37:22;;;;;;;12.77;6.10;;;;;;;;;;5013319;28;20837;-75
2023/07/19 04:39:49;;;;;;;9.13;5.70;;;;;;;;;;5014395;28;20477;-74
2023/07/19 04:42:17;;;;;;;5.83;4.10;;;;;;;;;;5014247;28;20479;-75
2023/07/19 04:44:44;;;;;;;9.07;4.60;;;;;;;;;;5014251;28;20450;-75
2023/07/19 04:47:11;;;;;;;8.50;5.90;;;;;;;;;;5014094;28;20458;-75
2023/07/19 04:49:40;;;;;;;7.70;4.40;;;;;;;;;;5014188;28;21011;-75
2023/07/19 04:52:07;;;;;;;8.63;5.07;;;;;;;;;;5014224;28;20479;-75
2023/07/19 04:54:34;;;;;;;7.77;4.47;;;;;;;;;;5014061;28;20481;-75
2023/07/19 04:57:01;;;;;;;11.50;6.37;;;;;;;;;;5013886;28;20944;-75
2023/07/19 04:59:29;;;;;;;13.87;5.50;;;;;;;;;;5013892;28;20455;-75
2023/07/19 05:01:56;;;;;;;9.70;4.50;;;;;;;;;;5013812;28;20474;-75
2023/07/19 05:04:23;;;;;;;5.97;3.77;;;;;;;;;;5013645;28;20981;-74
2023/07/19 05:06:51;;;;;;;7.77;4.60;;;;;;;;;;5013852;28;20460;-75
2023/07/19 05:09:19;;;;;;;10.00;4.20;;;;;;;;;;5013751;28;20454;-75
2023/07/19 05:11:46;;;;;;;8.03;3.60;;;;;;;;;;5013849;28;20486;-75
2023/07/19 05:14:13;;;;;;;8.57;4.30;;;;;;;;;;5013469;28;20458;-76
2023/07/19 05:16:40;;;;;;;8.07;4.50;;;;;;;;;;5013772;28;20469;-76
2023/07/19 05:19:08;;;;;;;11.20;4.70;;;;;;;;;;5013451;28;20459;-76
2023/07/19 05:21:35;;;;;;;8.33;4.10;;;;;;;;;;5013399;28;20466;-76
2023/07/19 05:24:04;;;;;;;13.93;5.10;;;;;;;;;;5013417;28;20459;-76
2023/07/19 05:26:31;;;;;;;8.60;5.27;;;;;;;;;;5013330;28;20458;-76
2023/07/19 05:28:58;;;;;;;6.30;4.00;;;;;;;;;;5013623;28;20455;-76
2023/07/19 05:31:25;;;;;;;11.87;3.97;;;;;;;;;;5013189;28;20948;-76
2023/07/19 05:33:52;;;;;;;5.63;4.10;;;;;;;;;;5013465;28;20462;-76
2023/07/19 05:36:19;;;;;;;5.90;4.20;;;;;;;;;;5013084;28;20454;-76
2023/07/19 05:38:47;;;;;;;6.90;4.07;;;;;;;;;;5013345;28;20461;-76
2023/07/19 05:41:15;;;;;;;11.70;6.37;;;;;;;;;;5013443;28;20474;-76
2023/07/19 05:43:42;;;;;;;4.27;3.87;;;;;;;;;;5013102;28;20447;-76
2023/07/19 05:46:10;;;;;;;13.40;4.73;;;;;;;;;;5013101;28;20462;-76
2023/07/19 05:48:37;;;;;;;7.00;4.37;;;;;;;;;;5012792;28;20454;-76
2023/07/19 05:51:06;;;;;;;7.33;4.50;;;;;;;;;;5013272;28;20593;-76
2023/07/19 05:53:33;;;;;;;10.73;6.00;;;;;;;;;;5012968;28;20450;-76
2023/07/19 05:56:00;;;;;;;12.57;4.40;;;;;;;;;;5012946;28;20454;-76
2023/07/19 05:58:30;;;;;;;4.57;3.40;;;;;;;;;;5012709;28;20549;-76
2023/07/19 06:00:57;;;;;;;11.00;4.17;;;;;;;;;;5012877;28;20482;-75
2023/07/19 06:03:24;;;;;;;6.87;3.90;;;;;;;;;;5012731;28;20469;-76
2023/07/19 06:05:51;;;;;;;11.23;5.90;;;;;;;;;;5013017;28;20939;-74
2023/07/19 06:08:18;;;;;;;10.67;4.17;;;;;;;;;;5012737;28;20461;-74
2023/07/19 06:10:46;;;;;;;6.03;3.90;;;;;;;;;;5012462;28;20493;-74
2023/07/19 06:13:14;;;;;;;6.77;3.80;;;;;;;;;;5012838;28;20558;-74
2023/07/19 06:15:42;;;;;;;9.70;3.97;;;;;;;;;;5012826;28;21017;-74
2023/07/19 06:18:10;;;;;;;5.57;3.70;;;;;;;;;;5012230;28;20462;-75
2023/07/19 06:20:37;;;;;;;7.63;4.27;;;;;;;;;;5012427;28;20466;-76
2023/07/19 06:23:05;;;;;;;8.83;4.30;;;;;;;;;;5012501;28;20457;-76
2023/07/19 06:25:32;;;;;;;7.97;5.13;;;;;;;;;;5012477;28;20461;-76
2023/07/19 06:27:59;;;;;;;6.00;4.30;;;;;;;;;;5012529;28;20801;-75
2023/07/19 06:30:26;;;;;;;21.50;5.20;;;;;;;;;;5012460;28;20585;-75
2023/07/19 06:32:54;;;;;;;9.60;4.00;;;;;;;;;;5012438;28;20489;-75
2023/07/19 06:35:22;;;;;;;10.30;5.20;;;;;;;;;;5012535;28;20458;-75
2023/07/19 06:37:49;;;;;;;10.17;4.13;;;;;;;;;;5012447;28;20453;-75
2023/07/19 06:40:16;;;;;;;7.17;4.80;;;;;;;;;;5012440;28;20461;-75
2023/07/19 06:42:43;;;;;;;6.87;4.80;;;;;;;;;;5012391;28;20447;-75
2023/07/19 06:45:11;;;;;;;11.10;4.80;;;;;;;;;;5012525;28;20799;-75
2023/07/19 06:47:38;;;;;;;7.83;4.77;;;;;;;;;;5012290;28;20478;-75
2023/07/19 06:50:08;;;;;;;12.93;5.17;;;;;;;;;;5012156;28;20486;-75
2023/07/19 06:52:35;;;;;;;6.57;4.30;;;;;;;;;;5012300;28;20563;-75
2023/07/19 06:55:03;;;;;;;7.17;4.37;;;;;;;;;;5012425;28;20820;-75
2023/07/19 06:57:30;;;;;;;9.73;6.10;;;;;;;;;;5012184;28;20462;-75
2023/07/19 06:59:58;;;;;;;12.37;4.80;;;;;;;;;;5012061;28;20471;-74
2023/07/19 07:02:26;;;;;;;8.90;4.07;;;;;;;;;;5016124;28;20475;-75
2023/07/19 07:04:53;;;;;;;10.10;5.30;;;;;;;;;;5016108;28;20450;-75
2023/07/19 07:07:21;;;;;;;10.37;4.00;;;;;;;;;;5016060;28;20457;-75
2023/07/19 07:09:48;;;;;;;6.73;4.27;;;;;;;;;;5015963;28;20486;-75
2023/07/19 07:12:15;;;;;;;6.23;3.53;;;;;;;;;;5007546;28;21039;-74
2023/07/19 07:14:42;;;;;;;8.00;4.73;;;;;;;;;;5011378;28;20912;-76
2023/07/19 07:17:10;;;;;;;9.67;6.27;;;;;;;;;;5016043;28;20545;-76
2023/07/19 07:19:37;;;;;;;11.80;4.90;;;;;;;;;;5015413;28;20458;-76
2023/07/19 07:22:05;;;;;;;10.60;5.00;;;;;;;;;;5015558;28;20838;-77
2023/07/19 07:24:34;;;;;;;8.00;4.07;;;;;;;;;;5015813;28;20438;-76
2023/07/19 07:27:03;;;;;;;9.47;4.30;;;;;;;;;;5015827;28;20465;-76
2023/07/19 07:29:31;;;;;;;10.37;6.23;;;;;;;;;;5015496;28;20650;-76
2023/07/19 07:31:58;;;;;;;6.20;3.43;;;;;;;;;;5015054;28;20502;-76
2023/07/19 07:34:25;;;;;;;3.07;2.27;;;;;;;;;;5015375;28;20557;-76
2023/07/19 07:36:52;;;;;;;3.30;2.33;;;;;;;;;;5015568;28;20454;-76
2023/07/19 07:39:19;;;;;;;4.40;2.13;;;;;;;;;;5015323;28;20547;-75
2023/07/19 07:41:48;;;;;;;2.77;1.90;;;;;;;;;;5015808;28;20577;-76
2023/07/19 07:44:15;;;;;;;3.23;2.87;;;;;;;;;;5015704;28;20458;-76
2023/07/19 07:46:42;;;;;;;3.00;1.83;;;;;;;;;;5015930;28;20463;-75
2023/07/19 07:49:09;;;;;;;2.17;1.73;;;;;;;;;;5015506;28;20454;-75
2023/07/19 07:51:36;;;;;;;2.83;1.70;;;;;;;;;;5015393;28;20555;-75
2023/07/19 07:54:03;;;;;;;2.00;1.60;;;;;;;;;;5015238;28;20454;-76
2023/07/19 07:56:31;;;;;;;2.80;1.50;;;;;;;;;;5015535;28;20450;-76
2023/07/19 07:58:59;;;;;;;3.03;2.30;;;;;;;;;;5015275;28;20458;-76
2023/07/19 08:01:26;;;;;;;4.80;2.27;;;;;;;;;;5014901;28;20473;-77
2023/07/19 08:03:54;;;;;;;2.80;2.23;;;;;;;;;;5015590;28;20932;-76
2023/07/19 08:06:21;;;;;;;2.93;2.00;;;;;;;;;;5015294;28;20459;-76
2023/07/19 08:08:48;;;;;;;5.00;2.40;;;;;;;;;;5015650;28;20469;-76
2023/07/19 08:11:15;;;;;;;4.67;3.17;;;;;;;;;;5014862;28;20501;-76
2023/07/19 08:13:42;;;;;;;3.30;3.00;;;;;;;;;;5014106;28;20462;-76
2023/07/19 08:16:10;;;;;;;3.20;2.70;;;;;;;;;;5015058;28;20463;-76
2023/07/19 08:18:37;;;;;;;6.43;4.20;;;;;;;;;;5014893;28;20454;-76
2023/07/19 08:21:06;;;;;;;7.03;4.03;;;;;;;;;;5014780;28;20474;-76
2023/07/19 08:23:33;;;;;;;7.90;4.10;;;;;;;;;;5014737;28;20465;-76
2023/07/19 08:26:00;;;;;;;5.87;4.50;;;;;;;;;;5014903;28;20447;-76
2023/07/19 08:28:27;;;;;;;5.67;4.17;;;;;;;;;;5014704;28;20455;-76
2023/07/19 08:30:55;;;;;;;4.17;3.50;;;;;;;;;;5014631;28;20494;-76
2023/07/19 08:33:24;;;;;;;6.03;3.70;;;;;;;;;;5014986;28;20804;-76
2023/07/19 08:35:51;;;;;;;6.80;4.07;;;;;;;;;;5014964;28;20469;-76
2023/07/19 08:38:18;;;;;;;7.17;3.60;;;;;;;;;;5014994;28;20454;-76
2023/07/19 08:40:48;;;;;;;5.57;4.60;;;;;;;;;;5014884;28;20475;-76
2023/07/19 08:43:15;;;;;;;7.20;4.73;;;;;;;;;;5014797;28;20970;-76
2023/07/19 08:45:42;;;;;;;5.87;4.37;;;;;;;;;;5014608;28;20905;-76
2023/07/19 08:48:09;;;;;;;4.60;3.73;;;;;;;;;;5014170;28;20459;-76
2023/07/19 08:50:38;;;;;;;3.93;3.60;;;;;;;;;;5014247;28;20842;-77
2023/07/19 08:53:06;;;;;;;5.13;3.63;;;;;;;;;;5014668;28;20451;-77
2023/07/19 08:55:35;;;;;;;6.27;3.20;;;;;;;;;;5014175;28;20454;-77
2023/07/19 08:58:02;;;;;;;4.27;3.53;;;;;;;;;;5014906;28;20461;-77
2023/07/19 09:00:33;;;;;;;5.13;4.57;;;;;;;;;;5014939;28;20487;-77
2023/07/19 09:03:00;;;;;;;3.30;3.00;;;;;;;;;;5014803;28;20501;-77
2023/07/19 09:05:29;;;;;;;5.00;4.50;;;;;;;;;;5014253;28;20959;-76
2023/07/19 09:08:00;;;;;;;6.60;4.83;;;;;;;;;;5014830;28;20459;-77
2023/07/19 09:10:28;;;;;;;4.43;3.83;;;;;;;;;;5015810;28;20462;-77
2023/07/19 09:12:55;;;;;;;6.20;4.70;;;;;;;;;;5016430;28;20467;-76
2023/07/19 09:15:22;;;;;;;11.03;5.87;;;;;;;;;;5016332;28;20462;-77
2023/07/19 09:17:50;;;;;;;4.43;4.03;;;;;;;;;;5016373;28;20831;-77
2023/07/19 09:20:19;;;;;;;5.00;4.10;;;;;;;;;;5016546;28;20454;-78
2023/07/19 09:22:46;;;;;;;5.27;4.67;;;;;;;;;;5015956;28;20506;-79
2023/07/19 09:25:15;;;;;;;5.23;4.70;;;;;;;;;;5015822;28;20998;-77
2023/07/19 09:27:42;;;;;;;5.00;4.50;;;;;;;;;;5015453;28;20470;-77
2023/07/19 09:30:10;;;;;;;5.27;4.60;;;;;;;;;;5014307;28;20466;-77
2023/07/19 09:32:38;;;;;;;7.13;4.73;;;;;;;;;;5014270;28;20569;-78
2023/07/19 09:35:06;;;;;;;6.63;5.43;;;;;;;;;;5013802;28;20451;-78
2023/07/19 09:37:33;;;;;;;6.80;4.90;;;;;;;;;;5015138;28;20465;-77
2023/07/19 09:40:01;;;;;;;5.90;5.30;;;;;;;;;;5015759;28;20466;-78
2023/07/19 09:42:31;;;;;;;8.00;5.03;;;;;;;;;;5014664;28;20481;-77
2023/07/19 09:44:59;;;;;;;9.57;5.53;;;;;;;;;;5015162;28;20838;-77
2023/07/19 09:47:27;;;;;;;6.53;5.57;;;;;;;;;;5015207;28;20455;-77
2023/07/19 09:49:54;;;;;;;5.50;4.77;;;;;;;;;;5016219;28;20458;-78
2023/07/19 09:52:22;;;;;;;7.00;5.00;;;;;;;;;;5016026;28;20525;-77
2023/07/19 09:54:49;;;;;;;7.43;5.70;;;;;;;;;;5015521;28;20827;-78
2023/07/19 09:57:17;;;;;;;6.20;5.27;;;;;;;;;;5016507;28;20461;-77
2023/07/19 09:59:46;;;;;;;5.33;4.83;;;;;;;;;;5014636;28;20466;-77
2023/07/19 10:02:13;;;;;;;8.00;4.97;;;;;;;;;;5012609;28;20566;-76
2023/07/19 10:04:42;;;;;;;7.70;5.53;;;;;;;;;;5013326;28;20553;-77
2023/07/19 10:07:10;;;;;;;7.97;5.57;;;;;;;;;;5012512;28;20458;-77
2023/07/19 10:09:38;;;;;;;9.50;7.17;;;;;;;;;;5013358;28;20532;-77
2023/07/19 10:12:25;;;;;;;9.00;6.27;;;;;;;;;;5013771;28;20495;-77
2023/07/19 10:14:54;;;;;;;8.67;6.20;;;;;;;;;;5013054;28;20454;-77
2023/07/19 10:17:21;;;;;;;6.63;6.00;;;;;;;;;;5012853;28;20940;-77
2023/07/19 10:20:14;;;;;;;5.80;5.30;;;;;;;;;;5012921;28;20512;-79
2023/07/19 10:22:47;;;;;;;11.63;5.93;;;;;;;;;;5007305;28;20470;-79
2023/07/19 10:25:21;;;;;;;8.93;5.37;;;;;;;;;;5016782;28;20458;-81
2023/07/19 10:27:56;;;;;;;10.30;5.90;;;;;;;;;;5017460;28;20497;-81
2023/07/19 10:30:44;;;;;;;12.50;6.23;;;;;;;;;;5017109;28;20962;-81
2023/07/19 10:33:12;;;;;;;10.73;7.07;;;;;;;;;;5017983;28;20475;-80
2023/07/19 10:35:40;;;;;;;9.53;6.13;;;;;;;;;;5017399;28;20459;-81
2023/07/19 10:38:07;;;;;;;11.60;6.30;;;;;;;;;;5016223;28;20478;-80
2023/07/19 10:40:34;;;;;;;9.53;6.80;;;;;;;;;;5016261;28;20477;-81
2023/07/19 10:43:04;;;;;;;8.17;6.33;;;;;;;;;;5017002;28;20447;-81
2023/07/19 10:45:32;;;;;;;10.37;6.40;;;;;;;;;;5016819;28;20439;-81
2023/07/19 10:48:00;;;;;;;8.77;6.30;;;;;;;;;;5014733;28;20447;-79
2023/07/19 10:50:27;;;;;;;9.10;6.73;;;;;;;;;;5015532;28;20769;-81
2023/07/19 10:52:54;;;;;;;10.43;6.40;;;;;;;;;;5015354;28;20490;-81
2023/07/19 10:55:21;;;;;;;9.10;7.07;;;;;;;;;;5015404;28;20818;-80
2023/07/19 10:57:48;;;;;;;8.50;6.60;;;;;;;;;;5015527;28;20462;-79
2023/07/19 11:00:15;;;;;;;11.10;6.70;;;;;;;;;;5015942;28;20849;-81
2023/07/19 11:02:44;;;;;;;6.27;5.10;;;;;;;;;;5015900;28;20832;-79
2023/07/19 11:05:13;;;;;;;7.80;5.20;;;;;;;;;;5015800;28;20556;-81
2023/07/19 11:07:40;;;;;;;7.73;5.50;;;;;;;;;;5016595;28;20914;-81
2023/07/19 11:10:08;;;;;;;9.50;6.43;;;;;;;;;;5015536;28;20830;-82
2023/07/19 11:12:35;;;;;;;10.93;7.07;;;;;;;;;;5015969;28;20487;-81
2023/07/19 11:18:07;;;;;;;9.90;6.13;;;;;;;;;;5012090;28;20386;-78
2023/07/19 11:20:39;;;;;;;7.40;6.23;;;;;;;;;;5011969;28;20514;-79
2023/07/19 11:23:07;;;;;;;9.43;6.30;;;;;;;;;;5012938;28;20557;-80
2023/07/19 11:25:35;;;;;;;6.57;5.97;;;;;;;;;;5012616;28;20461;-79
2023/07/19 11:28:02;;;;;;;8.80;5.77;;;;;;;;;;5012641;28;20952;-80
2023/07/19 11:30:39;;;;;;;6.90;5.40;;;;;;;;;;5012350;28;20481;-80
2023/07/19 11:33:09;;;;;;;6.23;5.63;;;;;;;;;;5012205;28;20898;-79
2023/07/19 11:35:36;;;;;;;6.87;4.87;;;;;;;;;;5014951;28;20493;-80
2023/07/19 11:38:04;;;;;;;10.70;7.47;;;;;;;;;;5015051;28;20956;-81
2023/07/19 11:40:31;;;;;;;7.40;6.60;;;;;;;;;;5015402;28;20475;-81
2023/07/19 11:42:58;;;;;;;5.73;5.10;;;;;;;;;;5005076;28;20458;-81
2023/07/19 11:45:31;;;;;;;5.13;4.63;;;;;;;;;;4996583;28;20506;-80
2023/07/19 11:47:59;;;;;;;6.73;6.03;;;;;;;;;;4998626;28;20467;-81
2023/07/19 11:50:28;;;;;;;7.80;5.30;;;;;;;;;;5000495;28;20456;-81
2023/07/19 11:52:56;;;;;;;9.50;5.70;;;;;;;;;;5000045;28;20483;-81
2023/07/19 11:55:24;;;;;;;5.43;4.63;;;;;;;;;;5000243;28;20567;-82
2023/07/19 11:57:52;;;;;;;6.70;5.30;;;;;;;;;;5000382;28;20464;-82
2023/07/19 12:00:21;;;;;;;9.70;8.10;;;;;;;;;;4999872;28;20458;-81
2023/07/19 12:02:49;;;;;;;5.87;5.20;;;;;;;;;;5000599;28;20640;-82
2023/07/19 12:05:17;;;;;;;4.80;4.30;;;;;;;;;;5022547;28;20816;-81
2023/07/19 12:07:46;;;;;;;6.00;5.40;;;;;;;;;;5040450;28;20442;-82
2023/07/19 12:10:13;;;;;;;5.03;4.53;;;;;;;;;;5042045;28;20535;-81
2023/07/19 12:12:41;;;;;;;4.80;4.30;;;;;;;;;;5040210;28;20547;-82
2023/07/19 12:15:09;;;;;;;5.73;4.57;;;;;;;;;;5040135;28;20462;-81
2023/07/19 12:17:36;;;;;;;13.90;4.50;;;;;;;;;;5036568;28;20477;-81
2023/07/19 12:20:04;;;;;;;5.27;4.70;;;;;;;;;;5039936;28;20539;-81
2023/07/19 12:22:32;;;;;;;7.30;4.33;;;;;;;;;;5038478;28;20517;-80
2023/07/19 12:25:00;;;;;;;4.63;4.17;;;;;;;;;;5039630;28;20462;-81
2023/07/19 12:27:27;;;;;;;3.60;3.23;;;;;;;;;;5043435;28;20453;-80
2023/07/19 12:29:55;;;;;;;6.20;4.50;;;;;;;;;;5044157;28;20561;-81
2023/07/19 12:32:23;;;;;;;5.40;4.53;;;;;;;;;;5043615;28;20469;-80
2023/07/19 12:34:50;;;;;;;5.47;4.50;;;;;;;;;;5043666;28;20453;-81
2023/07/19 12:37:17;;;;;;;7.30;3.90;;;;;;;;;;5041083;28;20831;-80
2023/07/19 12:39:45;;;;;;;5.77;4.00;;;;;;;;;;5040865;28;20457;-81
2023/07/19 12:42:13;;;;;;;7.17;4.90;;;;;;;;;;5040737;28;20496;-80
2023/07/19 12:44:41;;;;;;;4.40;4.00;;;;;;;;;;5040756;28;20457;-80
2023/07/19 12:47:08;;;;;;;8.43;4.63;;;;;;;;;;5041291;28;20458;-81
2023/07/19 12:49:36;;;;;;;6.40;4.20;;;;;;;;;;5041237;28;20470;-80
2023/07/19 12:52:03;;;;;;;8.67;4.57;;;;;;;;;;5041330;28;20491;-80
2023/07/19 12:54:32;;;;;;;4.30;3.87;;;;;;;;;;5040571;28;20450;-81
2023/07/19 12:56:59;;;;;;;4.10;3.70;;;;;;;;;;5041770;28;20488;-80
2023/07/19 12:59:28;;;;;;;6.30;4.30;;;;;;;;;;5040935;28;20450;-81
2023/07/19 13:01:55;;;;;;;4.30;3.90;;;;;;;;;;5041340;28;20549;-81
2023/07/19 13:04:24;;;;;;;7.23;4.00;;;;;;;;;;5041155;28;20937;-81
2023/07/19 13:06:54;;;;;;;7.00;4.90;;;;;;;;;;5040018;28;20458;-81
2023/07/19 13:09:21;;;;;;;12.03;4.83;;;;;;;;;;5039630;28;20542;-81
2023/07/19 13:11:48;;;;;;;6.10;4.93;;;;;;;;;;5041691;28;20477;-81
2023/07/19 13:14:15;;;;;;;7.00;4.40;;;;;;;;;;5041755;28;20462;-80
2023/07/19 13:16:44;;;;;;;6.20;4.60;;;;;;;;;;5040332;28;20446;-81
2023/07/19 13:19:12;;;;;;;4.83;3.57;;;;;;;;;;5042587;28;20453;-82
2023/07/19 13:21:39;;;;;;;6.73;4.57;;;;;;;;;;5040576;28;20990;-81
2023/07/19 13:24:07;;;;;;;4.13;3.50;;;;;;;;;;5040984;28;20465;-81
2023/07/19 13:26:35;;;;;;;6.40;3.63;;;;;;;;;;5042003;28;20465;-80
2023/07/19 13:29:02;;;;;;;4.90;3.90;;;;;;;;;;5041994;28;20927;-81
2023/07/19 13:31:29;;;;;;;6.93;4.40;;;;;;;;;;5041190;28;20490;-82
2023/07/19 13:33:58;;;;;;;7.73;4.13;;;;;;;;;;5040308;28;20829;-80
2023/07/19 13:36:28;;;;;;;8.17;4.13;;;;;;;;;;5039485;28;20457;-80
2023/07/19 13:38:55;;;;;;;6.83;3.60;;;;;;;;;;5038918;28;20468;-81
2023/07/19 13:41:22;;;;;;;4.90;3.57;;;;;;;;;;5039691;28;21020;-80
2023/07/19 13:43:49;;;;;;;5.87;3.70;;;;;;;;;;5040839;28;20997;-81
2023/07/19 13:46:16;;;;;;;4.93;4.17;;;;;;;;;;5040215;28;20450;-81
2023/07/19 13:48:43;;;;;;;8.60;5.27;;;;;;;;;;5039899;28;20446;-81
2023/07/19 13:51:12;;;;;;;7.40;4.97;;;;;;;;;;5040097;28;20489;-80
2023/07/19 13:53:39;;;;;;;6.57;4.50;;;;;;;;;;5040670;28;21025;-81
2023/07/19 13:56:06;;;;;;;7.83;4.80;;;;;;;;;;5040277;28;20460;-80
2023/07/19 13:58:33;;;;;;;4.73;3.80;;;;;;;;;;5039342;28;20468;-81
2023/07/19 14:01:01;;;;;;;5.37;3.97;;;;;;;;;;5039769;28;20481;-81
2023/07/19 14:03:28;;;;;;;6.73;4.90;;;;;;;;;;5041171;28;20919;-81
2023/07/19 14:05:56;;;;;;;4.10;3.60;;;;;;;;;;5038189;28;20888;-82
2023/07/19 14:08:24;;;;;;;8.50;5.30;;;;;;;;;;5039433;28;20461;-80
2023/07/19 14:10:52;;;;;;;9.93;4.27;;;;;;;;;;5039425;28;20470;-81
2023/07/19 14:13:19;;;;;;;11.23;3.80;;;;;;;;;;5039204;28;20588;-80
2023/07/19 14:15:46;;;;;;;8.43;3.50;;;;;;;;;;5038426;28;20450;-80
2023/07/19 14:18:15;;;;;;;5.80;4.60;;;;;;;;;;5039034;28;20447;-81
2023/07/19 14:20:42;;;;;;;4.50;3.97;;;;;;;;;;5039007;28;20481;-80
2023/07/19 14:23:09;;;;;;;5.57;4.33;;;;;;;;;;5039638;28;20828;-80
2023/07/19 14:25:37;;;;;;;7.67;4.47;;;;;;;;;;5040189;28;20458;-80
2023/07/19 14:28:05;;;;;;;10.90;4.93;;;;;;;;;;5039367;28;20456;-81
2023/07/19 14:30:32;;;;;;;16.53;5.53;;;;;;;;;;5039524;28;20473;-82
2023/07/19 14:32:59;;;;;;;11.93;8.20;;;;;;;;;;5039387;28;20485;-81
2023/07/19 14:35:26;;;;;;;18.83;5.73;;;;;;;;;;5039464;28;20495;-81
2023/07/19 14:37:53;;;;;;;9.60;4.87;;;;;;;;;;5039184;28;20442;-80
2023/07/19 14:40:20;;;;;;;10.23;4.57;;;;;;;;;;5039860;28;20460;-80
2023/07/19 14:42:50;;;;;;;10.30;4.57;;;;;;;;;;5039509;28;20452;-80
2023/07/19 14:45:18;;;;;;;5.93;4.00;;;;;;;;;;5039166;28;20942;-80